createdAt,value
2022-08-09T00:00:21.456Z,101472.03
2022-08-09T00:02:51.886Z,101473.38
2022-08-09T00:06:19.038Z,101465.25
2022-08-09T00:08:12.868Z,101460.66
2022-08-09T00:10:59.573Z,101461.03
2022-08-09T00:13:28.195Z,101466.44
2022-08-09T00:16:02.667Z,101466.25
2022-08-09T00:18:34.994Z,101477.78
2022-08-09T00:21:08.657Z,101472.38
2022-08-09T00:23:57.990Z,101476.28
2022-08-09T00:26:29.995Z,101476.78
2022-08-09T00:29:12.518Z,101476.09
2022-08-09T00:32:00.856Z,101476.09
2022-08-09T00:34:28.534Z,101470.03
2022-08-09T00:37:00.756Z,101477.28
2022-08-09T00:40:12.362Z,101483.75
2022-08-09T00:44:19.571Z,101491.03
2022-08-09T00:45:15.652Z,101490.00
2022-08-09T00:47:44.006Z,101501.03
2022-08-09T00:50:14.198Z,101490.00
2022-08-09T00:52:42.738Z,101500.84
2022-08-09T00:55:16.799Z,101495.25
2022-08-09T00:57:59.304Z,101507.09
2022-08-09T01:00:27.911Z,101507.59
2022-08-09T01:03:02.591Z,101497.78
2022-08-09T01:05:57.245Z,101501.03
2022-08-09T01:08:31.881Z,101496.63
2022-08-09T01:11:15.203Z,101491.56
2022-08-09T01:14:03.060Z,101499.16
2022-08-09T01:16:35.907Z,101488.16
2022-08-09T01:19:42.903Z,101489.00
2022-08-09T01:22:54.941Z,101477.50
2022-08-09T01:26:05.463Z,101467.38
2022-08-09T01:28:35.901Z,101475.81
2022-08-09T01:31:07.967Z,101481.22
2022-08-09T01:33:41.271Z,101467.03
2022-08-09T01:36:13.632Z,101470.25
2022-08-09T01:38:46.330Z,101468.38
2022-08-09T01:41:55.564Z,101466.00
2022-08-09T01:44:29.275Z,101464.81
2022-08-09T01:47:00.376Z,101449.78
2022-08-09T01:49:38.909Z,101452.81
2022-08-09T01:52:10.418Z,101471.25
2022-08-09T01:54:45.952Z,101474.16
2022-08-09T01:57:20.549Z,101472.28
2022-08-09T01:59:52.650Z,101469.91
2022-08-09T02:02:23.888Z,101480.22
2022-08-09T02:05:05.614Z,101480.59
2022-08-09T02:08:35.826Z,101491.72
2022-08-09T02:10:51.336Z,101486.66
2022-08-09T02:13:22.136Z,101472.25
2022-08-09T02:15:59.212Z,101478.16
2022-08-09T02:18:29.368Z,101476.28
2022-08-09T02:21:02.567Z,101478.16
2022-08-09T02:23:39.727Z,101475.44
2022-08-09T02:26:25.032Z,101479.34
2022-08-09T02:29:03.291Z,101475.63
2022-08-09T02:31:36.143Z,101482.53
2022-08-09T02:34:41.014Z,101480.69
2022-08-09T02:37:15.837Z,101475.59
2022-08-09T02:39:55.113Z,101478.47
2022-08-09T02:42:31.987Z,101475.75
2022-08-09T02:45:05.103Z,101473.03
2022-08-09T02:47:57.442Z,101481.00
2022-08-09T02:50:29.143Z,101481.84
2022-08-09T02:53:25.734Z,101473.72
2022-08-09T02:55:58.689Z,101471.69
2022-08-09T02:58:35.629Z,101474.75
2022-08-09T03:01:08.247Z,101475.41
2022-08-09T03:04:17.565Z,101475.72
2022-08-09T03:06:29.410Z,101472.00
2022-08-09T03:08:57.772Z,101475.56
2022-08-09T03:11:30.152Z,101476.75
2022-08-09T03:14:15.989Z,101473.34
2022-08-09T03:16:48.290Z,101479.09
2022-08-09T03:19:52.850Z,101473.84
2022-08-09T03:22:12.300Z,101482.47
2022-08-09T03:25:21.501Z,101482.78
2022-08-09T03:27:48.193Z,101485.00
2022-08-09T03:30:29.146Z,101471.13
2022-08-09T03:32:59.738Z,101474.13
2022-08-09T03:35:44.331Z,101471.59
2022-08-09T03:38:28.549Z,101476.50
2022-08-09T03:40:56.531Z,101475.66
2022-08-09T03:43:23.796Z,101483.22
2022-08-09T03:46:05.197Z,101482.69
2022-08-09T03:48:42.931Z,101492.78
2022-08-09T03:51:55.542Z,101498.19
2022-08-09T03:54:14.600Z,101504.63
2022-08-09T03:56:42.461Z,101512.03
2022-08-09T03:59:17.114Z,101515.75
2022-08-09T04:01:50.711Z,101514.56
2022-08-09T04:04:18.876Z,101529.06
2022-08-09T04:06:49.113Z,101529.06
2022-08-09T04:09:47.410Z,101537.16
2022-08-09T04:12:31.637Z,101549.81
2022-08-09T04:15:01.447Z,101557.91
2022-08-09T04:17:30.100Z,101566.91
2022-08-09T04:19:58.866Z,101572.47
2022-08-09T04:22:30.186Z,101565.34
2022-08-09T04:25:00.010Z,101577.72
2022-08-09T04:27:29.098Z,101585.97
2022-08-09T04:29:57.259Z,101585.97
2022-08-09T04:32:31.342Z,101588.69
2022-08-09T04:35:01.523Z,101587.66
2022-08-09T04:37:45.074Z,101589.34
2022-08-09T04:40:29.034Z,101588.69
2022-08-09T04:43:01.959Z,101599.16
2022-08-09T04:45:31.054Z,101600.03
2022-08-09T04:48:08.028Z,101605.25
2022-08-09T04:50:38.312Z,101606.25
2022-08-09T04:53:11.513Z,101605.09
2022-08-09T04:55:58.049Z,101608.78
2022-08-09T04:58:31.941Z,101614.72
2022-08-09T05:01:01.450Z,101616.75
2022-08-09T05:03:40.107Z,101619.31
2022-08-09T05:06:21.962Z,101616.44
2022-08-09T05:09:00.487Z,101611.19
2022-08-09T05:11:32.387Z,101610.34
2022-08-09T05:14:06.662Z,101615.72
2022-08-09T05:16:43.826Z,101610.66
2022-08-09T05:19:25.911Z,101606.78
2022-08-09T05:21:55.322Z,101612.88
2022-08-09T05:24:24.854Z,101608.50
2022-08-09T05:26:53.274Z,101613.38
2022-08-09T05:29:23.980Z,101609.66
2022-08-09T05:31:58.444Z,101612.03
2022-08-09T05:34:32.851Z,101608.63
2022-08-09T05:37:04.912Z,101615.91
2022-08-09T05:39:36.291Z,101606.09
2022-08-09T05:42:17.294Z,101604.25
2022-08-09T05:44:53.096Z,101601.22
2022-08-09T05:47:22.848Z,101597.69
2022-08-09T05:50:26.837Z,101604.25
2022-08-09T05:52:40.324Z,101609.66
2022-08-09T05:55:20.357Z,101617.59
2022-08-09T05:57:56.662Z,101617.28
2022-08-09T06:00:32.881Z,101625.91
2022-08-09T06:03:02.174Z,101628.63
2022-08-09T06:05:57.469Z,101631.31
2022-08-09T06:08:24.213Z,101634.91
2022-08-09T06:10:53.059Z,101632.88
2022-08-09T06:13:21.301Z,101630.00
2022-08-09T06:15:51.396Z,101639.81
2022-08-09T06:18:25.159Z,101651.16
2022-08-09T06:20:57.822Z,101646.13
2022-08-09T06:23:55.745Z,101644.31
2022-08-09T06:26:20.920Z,101651.09
2022-08-09T06:29:00.216Z,101650.63
2022-08-09T06:31:40.301Z,101648.47
2022-08-09T06:34:22.811Z,101651.00
2022-08-09T06:36:58.903Z,101646.13
2022-08-09T06:39:48.660Z,101644.59
2022-08-09T06:42:24.810Z,101650.41
2022-08-09T06:44:58.861Z,101647.88
2022-08-09T06:47:39.627Z,101652.66
2022-08-09T06:50:13.361Z,101654.72
2022-08-09T06:52:48.592Z,101664.00
2022-08-09T06:55:22.440Z,101664.09
2022-08-09T06:58:01.361Z,101660.72
2022-08-09T07:00:54.522Z,101665.47
2022-08-09T07:03:19.879Z,101663.78
2022-08-09T07:06:03.423Z,101664.84
2022-08-09T07:08:32.639Z,101674.84
2022-08-09T07:11:03.395Z,101675.34
2022-08-09T07:13:31.740Z,101681.13
2022-08-09T07:16:42.295Z,101675.88
2022-08-09T07:19:06.300Z,101686.22
2022-08-09T07:21:35.250Z,101681.31
2022-08-09T07:24:05.071Z,101684.91
2022-08-09T07:26:32.956Z,101685.56
2022-08-09T07:29:08.364Z,101680.66
2022-08-09T07:31:44.883Z,101684.59
2022-08-09T07:34:20.190Z,101690.16
2022-08-09T07:36:49.280Z,101688.63
2022-08-09T07:39:17.493Z,101678.66
2022-08-09T07:41:48.441Z,101680.34
2022-08-09T07:44:15.788Z,101683.72
2022-08-09T07:46:51.335Z,101683.03
2022-08-09T07:49:19.375Z,101685.75
2022-08-09T07:52:05.357Z,101680.66
2022-08-09T07:54:35.190Z,101672.03
2022-08-09T07:57:04.508Z,101678.97
2022-08-09T07:59:51.924Z,101677.09
2022-08-09T08:02:26.574Z,101678.63
2022-08-09T08:04:54.066Z,101677.25
2022-08-09T08:08:44.262Z,101681.31
2022-08-09T08:10:10.808Z,101678.09
2022-08-09T08:12:42.410Z,101674.00
2022-08-09T08:15:24.306Z,101679.56
2022-08-09T08:17:57.987Z,101677.38
2022-08-09T08:20:30.622Z,101678.88
2022-08-09T08:23:16.156Z,101677.66
2022-08-09T08:25:48.306Z,101680.38
2022-08-09T08:28:25.578Z,101676.47
2022-08-09T08:31:14.461Z,101679.00
2022-08-09T08:33:52.739Z,101679.00
2022-08-09T08:36:28.730Z,101674.53
2022-08-09T08:38:59.677Z,101675.03
2022-08-09T08:41:50.214Z,101671.41
2022-08-09T08:44:23.208Z,101660.75
2022-08-09T08:47:00.082Z,101669.34
2022-08-09T08:49:46.432Z,101670.56
2022-08-09T08:55:15.296Z,101673.00
2022-08-09T08:57:56.567Z,101664.31
2022-08-09T09:00:30.447Z,101666.50
2022-08-09T09:03:11.694Z,101665.66
2022-08-09T09:05:59.942Z,101670.50
2022-08-09T09:08:37.900Z,101658.91
2022-08-09T09:11:13.886Z,101666.47
2022-08-09T09:13:56.933Z,101656.09
2022-08-09T09:16:32.321Z,101667.09
2022-08-09T09:19:37.408Z,101657.22
2022-08-09T09:22:11.789Z,101663.91
2022-08-09T09:24:46.821Z,101665.34
2022-08-09T09:28:03.607Z,101660.00
2022-08-09T09:30:32.938Z,101665.72
2022-08-09T09:33:16.751Z,101650.72
2022-08-09T09:36:01.565Z,101662.75
2022-08-09T09:38:46.420Z,101657.94
2022-08-09T09:41:22.743Z,101656.72
2022-08-09T09:44:12.512Z,101650.09
2022-08-09T09:46:42.861Z,101655.09
2022-08-09T09:49:12.605Z,101650.09
2022-08-09T09:51:40.935Z,101645.81
2022-08-09T09:54:19.119Z,101646.28
2022-08-09T09:58:01.002Z,101652.28
2022-08-09T09:59:37.132Z,101636.69
2022-08-09T10:02:04.500Z,101634.44
2022-08-09T10:04:31.926Z,101640.13
2022-08-09T10:07:03.612Z,101632.50
2022-08-09T10:09:49.019Z,101640.75
2022-08-09T10:12:31.301Z,101640.88
2022-08-09T10:15:50.643Z,101639.19
2022-08-09T10:18:12.420Z,101646.38
2022-08-09T10:20:44.696Z,101634.53
2022-08-09T10:23:17.453Z,101642.28
2022-08-09T10:26:07.298Z,101646.34
2022-08-09T10:28:37.590Z,101649.91
2022-08-09T10:34:10.250Z,101631.34
2022-08-09T10:36:50.272Z,101631.78
2022-08-09T10:39:23.289Z,101626.34
2022-08-09T10:41:56.000Z,101625.56
2022-08-09T10:44:28.432Z,101624.13
2022-08-09T10:48:11.905Z,101626.28
2022-08-09T10:50:20.968Z,101610.06
2022-08-09T10:53:10.489Z,101616.19
2022-08-09T10:55:55.675Z,101605.38
2022-08-09T10:58:34.658Z,101601.06
2022-08-09T11:03:06.724Z,101591.31
2022-08-09T11:04:28.158Z,101595.28
2022-08-09T11:07:00.261Z,101584.47
2022-08-09T11:09:41.372Z,101583.91
2022-08-09T11:12:20.547Z,101582.47
2022-08-09T11:14:55.911Z,101581.00
2022-08-09T11:17:24.564Z,101582.94
2022-08-09T11:20:10.760Z,101576.31
2022-08-09T11:22:47.343Z,101575.47
2022-08-09T11:25:47.102Z,101569.03
2022-08-09T11:28:38.882Z,101569.88
2022-08-09T11:31:49.880Z,101568.63
2022-08-09T11:34:26.579Z,101561.72
2022-08-09T11:36:56.816Z,101561.31
2022-08-09T11:39:25.051Z,101565.56
2022-08-09T11:42:08.075Z,101558.44
2022-08-09T11:44:46.263Z,101558.06
2022-08-09T11:47:14.570Z,101554.91
2022-08-09T11:50:55.374Z,101545.44
2022-08-09T11:53:16.394Z,101550.06
2022-08-09T11:55:53.127Z,101545.69
2022-08-09T11:58:32.666Z,101541.69
2022-08-09T12:01:08.802Z,101546.53
2022-08-09T12:03:57.369Z,101546.75
2022-08-09T12:06:32.094Z,101539.59
2022-08-09T12:09:19.674Z,101532.44
2022-08-09T12:12:04.072Z,101534.53
2022-08-09T12:14:37.036Z,101529.94
2022-08-09T12:17:28.088Z,101525.53
2022-08-09T12:20:22.206Z,101516.69
2022-08-09T12:23:01.507Z,101513.91
2022-08-09T12:25:37.036Z,101505.94
2022-08-09T12:29:00.216Z,101507.78
2022-08-09T12:31:10.862Z,101506.97
2022-08-09T12:34:01.117Z,101515.56
2022-08-09T12:36:33.852Z,101517.28
2022-08-09T12:39:14.174Z,101508.47
2022-08-09T12:42:21.182Z,101506.56
2022-08-09T12:45:38.734Z,101504.22
2022-08-09T12:48:56.220Z,101501.91
2022-08-09T12:52:16.282Z,101509.44
2022-08-09T12:56:14.701Z,101507.31
2022-08-09T12:58:42.720Z,101483.56
2022-08-09T13:01:22.946Z,101498.69
2022-08-09T13:03:59.380Z,101493.00
2022-08-09T13:06:34.820Z,101493.59
2022-08-09T13:09:06.695Z,101481.38
2022-08-09T13:11:39.621Z,101489.59
2022-08-09T13:14:42.309Z,101490.69
2022-08-09T13:17:05.198Z,101485.16
2022-08-09T13:20:10.562Z,101482.66
2022-08-09T13:23:01.647Z,101480.09
2022-08-09T13:25:23.102Z,101476.94
2022-08-09T13:27:55.994Z,101465.63
2022-08-09T13:31:11.168Z,101462.84
2022-08-09T13:33:22.705Z,101453.19
2022-08-09T13:36:37.870Z,101469.56
2022-08-09T13:38:57.904Z,101458.44
2022-08-09T13:41:57.643Z,101459.59
2022-08-09T13:44:16.262Z,101462.69
2022-08-09T13:47:27.674Z,101462.28
2022-08-09T13:49:39.485Z,101461.59
2022-08-09T13:52:18.980Z,101457.91
2022-08-09T13:54:59.749Z,101461.44
2022-08-09T13:57:35.417Z,101455.34
2022-08-09T14:00:16.985Z,101444.50
2022-08-09T14:03:17.094Z,101445.13
2022-08-09T14:06:01.122Z,101444.94
2022-08-09T14:08:22.246Z,101446.72
2022-08-09T14:10:52.137Z,101441.41
2022-08-09T14:13:27.930Z,101440.06
2022-08-09T14:16:14.815Z,101445.44
2022-08-09T14:18:45.635Z,101433.38
2022-08-09T14:21:18.602Z,101440.53
2022-08-09T14:23:55.373Z,101432.63
2022-08-09T14:26:32.127Z,101435.44
2022-08-09T14:29:07.803Z,101423.66
2022-08-09T14:31:53.420Z,101429.53
2022-08-09T14:34:32.435Z,101429.25
2022-08-09T14:37:02.663Z,101426.41
2022-08-09T14:39:45.691Z,101423.72
2022-08-09T14:42:32.026Z,101424.34
2022-08-09T14:46:55.487Z,101422.06
2022-08-09T14:47:58.575Z,101424.63
2022-08-09T14:50:29.358Z,101422.00
2022-08-09T14:52:58.603Z,101426.94
2022-08-09T14:55:32.095Z,101422.91
2022-08-09T14:58:03.037Z,101423.03
2022-08-09T15:00:33.391Z,101423.81
2022-08-09T15:03:06.552Z,101420.72
2022-08-09T15:05:36.612Z,101421.47
2022-08-09T15:08:05.653Z,101426.97
2022-08-09T15:10:34.900Z,101422.56
2022-08-09T15:13:04.023Z,101432.63
2022-08-09T15:15:34.496Z,101429.75
2022-08-09T15:18:13.976Z,101434.34
2022-08-09T15:22:01.085Z,101429.47
2022-08-09T15:23:55.864Z,101420.97
2022-08-09T15:26:30.686Z,101426.47
2022-08-09T15:28:58.425Z,101423.84
2022-08-09T15:31:41.679Z,101425.63
2022-08-09T15:34:17.227Z,101423.25
2022-08-09T15:36:58.565Z,101425.03
2022-08-09T15:39:34.831Z,101420.50
2022-08-09T15:42:14.959Z,101418.69
2022-08-09T15:44:42.393Z,101414.75
2022-08-09T15:47:13.925Z,101411.53
2022-08-09T15:50:00.477Z,101411.66
2022-08-09T15:52:29.516Z,101412.47
2022-08-09T15:54:57.526Z,101410.22
2022-08-09T15:57:35.873Z,101411.06
2022-08-09T16:00:25.643Z,101407.38
2022-08-09T16:02:56.199Z,101412.13
2022-08-09T16:05:47.082Z,101410.47
2022-08-09T16:08:30.153Z,101413.91
2022-08-09T16:11:01.405Z,101402.81
2022-08-09T16:14:04.115Z,101409.88
2022-08-09T16:16:19.691Z,101402.81
2022-08-09T16:18:47.784Z,101408.19
2022-08-09T16:21:16.834Z,101395.22
2022-08-09T16:23:50.917Z,101392.00
2022-08-09T16:26:35.254Z,101394.69
2022-08-09T16:29:11.295Z,101390.63
2022-08-09T16:32:18.512Z,101386.38
2022-08-09T16:34:54.630Z,101390.13
2022-08-09T16:37:53.720Z,101391.94
2022-08-09T16:40:11.924Z,101398.72
2022-08-09T16:42:45.508Z,101386.38
2022-08-09T16:45:18.614Z,101386.16
2022-08-09T16:48:50.585Z,101398.25
2022-08-09T16:50:38.164Z,101394.63
2022-08-09T16:53:05.904Z,101393.50
2022-08-09T16:55:57.904Z,101397.59
2022-08-09T16:58:21.035Z,101404.28
2022-08-09T17:00:49.313Z,101407.50
2022-08-09T17:03:21.987Z,101407.56
2022-08-09T17:06:06.655Z,101407.66
2022-08-09T17:08:42.899Z,101416.78
2022-08-09T17:11:15.621Z,101410.13
2022-08-09T17:13:45.211Z,101413.56
2022-08-09T17:16:12.697Z,101414.47
2022-08-09T17:18:39.916Z,101415.22
2022-08-09T17:21:12.368Z,101422.25
2022-08-09T17:24:27.274Z,101425.03
2022-08-09T17:26:31.538Z,101418.97
2022-08-09T17:29:05.572Z,101417.25
2022-08-09T17:31:49.223Z,101427.75
2022-08-09T17:34:38.054Z,101429.78
2022-08-09T17:37:04.504Z,101437.97
2022-08-09T17:39:52.933Z,101434.94
2022-08-09T17:42:41.203Z,101439.34
2022-08-09T17:45:15.670Z,101442.66
2022-08-09T17:47:55.670Z,101445.97
2022-08-09T17:50:36.975Z,101446.16
2022-08-09T17:53:10.344Z,101455.59
2022-08-09T17:55:49.715Z,101450.31
2022-08-09T17:58:19.123Z,101447.13
2022-08-09T18:00:48.288Z,101462.41
2022-08-09T18:03:17.953Z,101461.09
2022-08-09T18:05:52.926Z,101454.34
2022-08-09T18:08:21.828Z,101456.63
2022-08-09T18:11:00.769Z,101454.53
2022-08-09T18:13:43.408Z,101465.81
2022-08-09T18:16:28.889Z,101461.59
2022-08-09T18:19:03.560Z,101465.78
2022-08-09T18:21:41.202Z,101464.28
2022-08-09T18:24:14.189Z,101466.56
2022-08-09T18:26:46.649Z,101473.25
2022-08-09T18:30:38.263Z,101475.31
2022-08-09T18:32:04.913Z,101483.25
2022-08-09T18:34:35.163Z,101481.56
2022-08-09T18:37:04.005Z,101483.00
2022-08-09T18:39:32.801Z,101484.44
2022-08-09T18:42:08.091Z,101489.03
2022-08-09T18:44:36.268Z,101491.34
2022-08-09T18:47:07.725Z,101495.47
2022-08-09T18:49:43.048Z,101499.25
2022-08-09T18:52:15.751Z,101498.59
2022-08-09T18:54:52.889Z,101497.28
2022-08-09T18:57:22.001Z,101510.22
2022-08-09T18:59:57.619Z,101503.09
2022-08-09T19:02:30.755Z,101510.81
2022-08-09T19:05:20.617Z,101518.16
2022-08-09T19:08:04.443Z,101521.44
2022-08-09T19:10:39.197Z,101517.22
2022-08-09T19:13:23.407Z,101522.03
2022-08-09T19:15:59.305Z,101524.31
2022-08-09T19:18:35.115Z,101531.81
2022-08-09T19:21:09.703Z,101532.56
2022-08-09T19:24:31.981Z,101535.03
2022-08-09T19:26:31.920Z,101535.16
2022-08-09T19:29:15.188Z,101542.00
2022-08-09T19:31:51.109Z,101536.59
2022-08-09T19:34:23.035Z,101534.44
2022-08-09T19:36:53.721Z,101529.75
2022-08-09T19:39:43.028Z,101545.78
2022-08-09T19:42:15.137Z,101534.84
2022-08-09T19:44:49.241Z,101537.09
2022-08-09T19:47:19.785Z,101543.25
2022-08-09T19:50:08.986Z,101545.88
2022-08-09T19:52:49.633Z,101552.91
2022-08-09T19:55:30.480Z,101561.25
2022-08-09T19:58:07.252Z,101545.31
2022-08-09T20:00:45.659Z,101553.66
2022-08-09T20:04:13.911Z,101548.59
2022-08-09T20:06:03.259Z,101559.34
2022-08-09T20:08:35.167Z,101559.56
2022-08-09T20:11:04.408Z,101566.19
2022-08-09T20:13:37.248Z,101573.53
2022-08-09T20:16:35.773Z,101570.81
2022-08-09T20:19:42.221Z,101573.34
2022-08-09T20:21:56.125Z,101578.38
2022-08-09T20:24:29.467Z,101582.31
2022-08-09T20:27:05.629Z,101586.41
2022-08-09T20:29:38.556Z,101583.69
2022-08-09T20:32:30.442Z,101583.03
2022-08-09T20:34:59.179Z,101590.34
2022-08-09T20:37:37.327Z,101589.66
2022-08-09T20:40:19.171Z,101593.59
2022-08-09T20:42:59.916Z,101595.28
2022-08-09T20:45:59.837Z,101599.50
2022-08-09T20:48:28.915Z,101605.81
2022-08-09T20:50:59.785Z,101601.88
2022-08-09T20:53:36.499Z,101603.53
2022-08-09T20:56:08.766Z,101598.81
2022-08-09T20:58:36.525Z,101613.22
2022-08-09T21:01:32.777Z,101606.97
2022-08-09T21:04:08.404Z,101610.53
2022-08-09T21:06:44.112Z,101617.00
2022-08-09T21:09:14.148Z,101617.13
2022-08-09T21:14:31.318Z,101616.69
2022-08-09T21:17:00.399Z,101620.47
2022-08-09T21:20:17.756Z,101619.34
2022-08-09T21:22:23.118Z,101620.38
2022-08-09T21:25:21.597Z,101622.06
2022-08-09T21:28:01.194Z,101630.88
2022-08-09T21:30:28.562Z,101630.03
2022-08-09T21:32:57.202Z,101628.53
2022-08-09T21:35:24.557Z,101628.72
2022-08-09T21:37:58.686Z,101631.97
2022-08-09T21:40:30.792Z,101629.06
2022-08-09T21:43:00.713Z,101635.34
2022-08-09T21:45:28.399Z,101640.94
2022-08-09T21:47:58.881Z,101633.19
2022-08-09T21:50:35.103Z,101636.63
2022-08-09T21:53:23.850Z,101636.50
2022-08-09T21:55:54.426Z,101634.63
2022-08-09T21:58:21.709Z,101633.28
2022-08-09T22:00:58.677Z,101635.81
2022-08-09T22:03:26.309Z,101633.28
2022-08-09T22:05:55.445Z,101634.00
2022-08-09T22:08:28.399Z,101632.31
2022-08-09T22:11:00.809Z,101631.09
2022-08-09T22:13:43.872Z,101636.19
2022-08-09T22:16:11.711Z,101634.69
2022-08-09T22:18:54.390Z,101633.34
2022-08-09T22:21:24.443Z,101632.50
2022-08-09T22:23:59.185Z,101638.63
2022-08-09T22:26:35.361Z,101639.06
2022-08-09T22:29:10.393Z,101641.63
2022-08-09T22:31:50.662Z,101643.28
2022-08-09T22:34:28.574Z,101639.56
2022-08-09T22:36:57.743Z,101644.84
2022-08-09T22:39:57.917Z,101643.13
2022-08-09T22:42:22.254Z,101651.28
2022-08-09T22:45:01.568Z,101650.19
2022-08-09T22:48:14.952Z,101646.59
2022-08-09T22:50:32.186Z,101652.94
2022-08-09T22:53:03.771Z,101646.16
2022-08-09T22:56:06.187Z,101652.41
2022-08-09T22:58:20.278Z,101646.84
2022-08-09T23:01:02.072Z,101643.16
2022-08-09T23:04:04.418Z,101635.72
2022-08-09T23:06:30.102Z,101644.53
2022-08-09T23:09:07.405Z,101645.03
2022-08-09T23:11:34.826Z,101646.88
2022-08-09T23:14:03.517Z,101654.19
2022-08-09T23:16:31.616Z,101648.75
2022-08-09T23:18:59.061Z,101647.25
2022-08-09T23:21:32.631Z,101635.56
2022-08-09T23:24:06.409Z,101651.84
2022-08-09T23:26:37.865Z,101649.59
2022-08-09T23:29:06.332Z,101652.66
2022-08-09T23:31:34.289Z,101651.44
2022-08-09T23:34:02.489Z,101650.25
2022-08-09T23:36:31.778Z,101654.47
2022-08-09T23:38:59.302Z,101656.13
2022-08-09T23:41:27.907Z,101659.72
2022-08-09T23:44:01.060Z,101652.41
2022-08-09T23:46:29.400Z,101657.84
2022-08-09T23:48:57.995Z,101655.31
2022-08-09T23:51:25.543Z,101659.91
2022-08-09T23:53:55.201Z,101658.53
2022-08-09T23:56:52.143Z,101656.00
2022-08-09T23:59:13.235Z,101652.28
